Terminal Aerodrome Forecast
Issued by NWS

Home | Current Version | Previous Version | Text Only | Print | Product List | Glossary On
Versions: 1 2 3 4 5 6 7 8 9 10 11 12 13 14 15
009
FTUS44 KLZK 301307 AAA
TAFHRO
TAF AMD
KHRO 301307Z 3013/3112 28006KT P6SM SKC
     FM301700 28008KT P6SM VCTS SCT050CB BKN120
      TEMPO 3018/3022 VRB15G30KT 6SM -TSRA BKN050CB
     FM310100 VRB04KT P6SM FEW100 SCT250=

USA.gov is the U.S. government's official web portal to all federal, state and local government web resources and services.